Time;durP1;ratioP1;P1;durP2;ratioP2;P2;SDS_P1;SDS_P2;PMS_P1;PMS_P2;Temp;Humidity;BMP_temperature;BMP_pressure;BME280_temperature;BME280_humidity;BME280_pressure;Samples;Min_cycle;Max_cycle;Signal;HPM_P1;HPM_P2
2021/07/13 00:00:27;;;;;;;20.05;15.70;;;;;;;22.00;91.63;99789.81;5055036;28;20381;-75
2021/07/13 00:02:55;;;;;;;21.50;16.08;;;;;;;21.96;92.13;99783.03;5055549;28;20095;-75
2021/07/13 00:05:24;;;;;;;20.50;15.30;;;;;;;21.95;92.49;99785.94;5055308;28;20048;-77
2021/07/13 00:07:54;;;;;;;19.25;16.20;;;;;;;21.90;92.60;99785.59;5055493;28;20051;-76
2021/07/13 00:10:26;;;;;;;17.85;15.68;;;;;;;21.87;92.75;99780.53;5055103;28;20053;-75
2021/07/13 00:12:57;;;;;;;21.58;16.33;;;;;;;21.76;93.82;99778.19;5055440;28;20499;-75
2021/07/13 00:15:28;;;;;;;67.35;24.23;;;;;;;21.69;94.30;99778.88;5054844;28;20037;-75
2021/07/13 00:17:59;;;;;;;20.25;15.00;;;;;;;21.57;95.14;99783.00;5054871;28;20053;-75
2021/07/13 00:20:28;;;;;;;19.63;15.80;;;;;;;21.55;95.34;99782.34;5054816;28;20045;-78
2021/07/13 00:22:56;;;;;;;19.08;15.23;;;;;;;21.52;95.61;99779.13;5055350;28;20037;-77
2021/07/13 00:25:30;;;;;;;18.33;16.13;;;;;;;21.57;95.08;99780.28;5054752;28;20055;-77
2021/07/13 00:27:58;;;;;;;19.58;16.10;;;;;;;21.68;94.52;99782.63;5055429;28;20044;-77
2021/07/13 00:30:27;;;;;;;20.15;16.80;;;;;;;21.58;95.00;99775.72;5055128;28;20052;-77
2021/07/13 00:32:56;;;;;;;18.80;15.05;;;;;;;21.53;95.44;99773.53;5055318;28;20091;-77
2021/07/13 00:35:25;;;;;;;19.40;15.25;;;;;;;21.60;94.82;99774.50;5054964;28;20044;-77
2021/07/13 00:37:53;;;;;;;17.27;15.50;;;;;;;21.64;94.65;99775.03;5055239;28;20041;-77
2021/07/13 00:40:23;;;;;;;20.58;16.40;;;;;;;21.59;94.92;99778.25;5054741;28;20053;-77
2021/07/13 00:42:54;;;;;;;19.85;16.20;;;;;;;21.49;95.81;99771.31;5055062;28;20049;-77
2021/07/13 00:45:23;;;;;;;17.23;15.38;;;;;;;21.49;95.57;99766.75;5054538;28;20049;-77
2021/07/13 00:47:54;;;;;;;18.10;16.20;;;;;;;21.52;95.78;99771.84;5054713;28;20045;-77
2021/07/13 00:50:26;;;;;;;21.83;16.48;;;;;;;21.45;96.09;99770.00;5053755;28;20077;-77
2021/07/13 00:52:57;;;;;;;19.27;15.68;;;;;;;21.47;95.76;99768.78;5054961;28;20049;-78
2021/07/13 00:55:26;;;;;;;18.77;15.95;;;;;;;21.51;95.42;99775.56;5054163;28;20049;-78
2021/07/13 00:57:56;;;;;;;21.45;16.67;;;;;;;21.47;95.62;99773.38;5054658;28;20052;-78
2021/07/13 01:00:25;;;;;;;18.92;15.68;;;;;;;21.42;96.47;99765.75;5054557;28;20052;-78
2021/07/13 01:02:57;;;;;;;18.92;16.48;;;;;;;21.45;95.90;99765.41;5054556;28;20476;-78
2021/07/13 01:05:29;;;;;;;21.35;16.00;;;;;;;21.44;95.48;99771.88;5054344;28;20049;-78
2021/07/13 01:08:05;;;;;;;19.27;16.33;;;;;;;21.24;96.26;99765.94;5054428;28;20044;-78
2021/07/13 01:10:45;;;;;;;19.92;15.95;;;;;;;21.20;96.58;99761.88;5054042;28;20052;-78
2021/07/13 01:13:25;;;;;;;18.52;16.48;;;;;;;21.19;97.23;99759.34;5054173;28;20057;-78
2021/07/13 01:15:57;;;;;;;20.70;16.95;;;;;;;21.09;97.69;99754.09;5054392;28;20040;-78
2021/07/13 01:18:30;;;;;;;20.17;17.00;;;;;;;21.08;97.36;99753.25;5054100;28;20520;-77
2021/07/13 01:21:34;;;;;;;20.60;16.85;;;;;;;21.24;96.73;99756.97;5054595;28;20052;-80
2021/07/13 01:24:39;;;;;;;20.55;17.08;;;;;;;21.23;96.34;99755.25;5045268;28;20068;-74
2021/07/13 01:27:33;;;;;;;19.05;15.88;;;;;;;21.22;96.22;99754.41;5050611;28;20492;-73
2021/07/13 01:30:08;;;;;;;22.70;16.98;;;;;;;21.15;96.46;99748.84;5053868;28;20049;-74
2021/07/13 01:32:37;;;;;;;19.77;17.05;;;;;;;21.13;96.56;99750.88;5053763;28;20045;-73
2021/07/13 01:35:09;;;;;;;20.13;16.92;;;;;;;21.13;96.50;99745.47;5053871;28;20064;-74
2021/07/13 01:37:40;;;;;;;22.10;16.67;;;;;;;21.07;97.14;99743.44;5053620;28;20041;-74
2021/07/13 01:40:10;;;;;;;18.92;16.42;;;;;;;21.09;97.26;99748.66;5053542;28;20068;-74
2021/07/13 01:42:39;;;;;;;17.67;15.77;;;;;;;21.06;97.29;99744.44;5054078;28;20037;-74
2021/07/13 01:45:11;;;;;;;22.10;16.58;;;;;;;20.99;97.16;99748.84;5053533;28;20392;-74
2021/07/13 01:47:41;;;;;;;18.30;16.02;;;;;;;20.89;97.80;99737.34;5052382;28;20083;-74
2021/07/13 01:50:11;;;;;;;22.45;16.60;;;;;;;21.03;97.22;99733.09;5053646;28;20072;-73
2021/07/13 01:52:41;;;;;;;20.55;15.25;;;;;;;20.93;97.59;99733.25;5053315;28;20041;-73
2021/07/13 01:55:11;;;;;;;19.40;16.02;;;;;;;21.02;97.08;99734.09;5053434;28;20091;-73
2021/07/13 01:57:40;;;;;;;20.00;16.30;;;;;;;20.88;97.71;99730.22;5053202;28;20041;-73
2021/07/13 02:00:11;;;;;;;21.08;16.00;;;;;;;20.95;96.80;99735.84;5053083;28;20045;-73
2021/07/13 02:02:42;;;;;;;18.98;16.00;;;;;;;20.83;97.43;99732.59;5052606;28;20045;-73
2021/07/13 02:05:12;;;;;;;17.88;15.93;;;;;;;20.75;97.83;99740.72;5053503;28;20044;-73
2021/07/13 02:07:43;;;;;;;19.50;15.50;;;;;;;20.64;98.61;99738.38;5053224;28;20041;-74
2021/07/13 02:10:12;;;;;;;18.00;16.10;;;;;;;20.58;99.08;99751.59;5051763;28;20090;-73
2021/07/13 02:12:41;;;;;;;17.90;15.40;;;;;;;20.63;98.84;99742.09;5051979;28;20048;-73
2021/07/13 02:15:13;;;;;;;18.30;15.30;;;;;;;20.67;99.02;99743.47;5053484;28;20127;-73
2021/07/13 02:17:44;;;;;;;21.95;16.25;;;;;;;20.68;99.00;99747.88;5053127;28;20063;-74
2021/07/13 02:20:13;;;;;;;18.17;15.55;;;;;;;20.71;98.12;99744.81;5052892;28;20037;-73
2021/07/13 02:22:41;;;;;;;19.52;16.23;;;;;;;20.73;98.21;99742.78;5052898;28;20049;-74
2021/07/13 02:25:12;;;;;;;18.90;16.60;;;;;;;20.60;99.28;99737.88;5052796;28;20086;-74
2021/07/13 02:27:46;;;;;;;21.50;17.00;;;;;;;20.52;99.86;99741.41;5053170;28;20052;-74
2021/07/13 02:30:16;;;;;;;18.98;16.55;;;;;;;20.51;100.00;99749.72;5052833;28;20071;-82
2021/07/13 02:32:49;;;;;;;19.98;17.05;;;;;;;20.53;100.00;99745.81;5053009;28;20201;-74
2021/07/13 02:35:20;;;;;;;17.75;15.85;;;;;;;20.60;100.00;99750.56;5052457;28;20377;-74
2021/07/13 02:37:49;;;;;;;21.08;16.55;;;;;;;20.62;99.93;99752.09;5052688;28;20049;-74
2021/07/13 02:40:19;;;;;;;19.50;16.05;;;;;;;20.68;99.14;99750.56;5052238;28;20206;-74
2021/07/13 02:42:49;;;;;;;18.23;16.08;;;;;;;20.73;98.39;99748.19;5052738;28;20041;-74
2021/07/13 02:45:19;;;;;;;21.20;16.65;;;;;;;20.53;99.70;99748.53;5052290;28;20049;-74
2021/07/13 02:47:48;;;;;;;19.58;16.70;;;;;;;20.47;100.00;99748.38;5052639;28;20045;-73
2021/07/13 02:50:18;;;;;;;22.65;17.40;;;;;;;20.39;100.00;99757.28;5052257;28;20127;-74
2021/07/13 02:52:50;;;;;;;20.85;16.67;;;;;;;20.40;100.00;99750.84;5052610;28;20043;-73
2021/07/13 02:55:22;;;;;;;21.40;18.00;;;;;;;20.29;100.00;99753.91;5052453;28;20041;-74
2021/07/13 02:57:52;;;;;;;19.40;16.90;;;;;;;20.29;100.00;99751.19;5052637;28;20045;-73
2021/07/13 03:00:23;;;;;;;20.50;16.90;;;;;;;20.30;100.00;99752.88;5052260;28;20776;-74
2021/07/13 03:02:52;;;;;;;20.20;17.48;;;;;;;20.36;100.00;99752.19;5052681;28;20545;-74
2021/07/13 03:05:23;;;;;;;22.38;17.10;;;;;;;20.42;100.00;99751.53;5052184;28;20041;-74
2021/07/13 03:07:53;;;;;;;20.70;17.75;;;;;;;20.51;100.00;99741.59;5052682;28;20044;-74
2021/07/13 03:10:23;;;;;;;22.65;17.45;;;;;;;20.53;100.00;99750.38;5052106;28;20048;-75
2021/07/13 03:12:53;;;;;;;25.63;17.45;;;;;;;20.52;100.00;99752.25;5052531;28;20047;-74
2021/07/13 03:15:24;;;;;;;20.52;17.42;;;;;;;20.55;100.00;99751.91;5055892;28;20499;-74
2021/07/13 03:17:54;;;;;;;21.63;17.70;;;;;;;20.54;100.00;99750.22;5056583;28;20407;-73
2021/07/13 03:20:23;;;;;;;24.55;17.42;;;;;;;20.53;100.00;99745.81;5055998;28;20044;-73
2021/07/13 03:22:53;;;;;;;22.52;17.67;;;;;;;20.58;100.00;99751.59;5056243;28;20488;-73
2021/07/13 03:25:26;;;;;;;20.15;16.98;;;;;;;20.63;99.80;99750.22;5055763;28;20120;-74
2021/07/13 03:27:56;;;;;;;20.35;17.10;;;;;;;20.67;99.82;99751.59;5056457;28;20132;-73
2021/07/13 03:30:27;;;;;;;21.67;17.52;;;;;;;20.72;99.55;99746.50;5056130;28;20495;-74
2021/07/13 03:33:00;;;;;;;23.45;16.73;;;;;;;20.88;98.36;99735.66;5056286;28;20037;-73
2021/07/13 03:35:29;;;;;;;21.25;16.40;;;;;;;20.93;98.05;99738.69;5055723;28;20041;-74
2021/07/13 03:37:59;;;;;;;22.73;17.90;;;;;;;20.91;98.16;99735.31;5055878;28;20048;-73
2021/07/13 03:40:28;;;;;;;21.42;17.35;;;;;;;21.01;97.69;99741.38;5055366;28;20045;-74
2021/07/13 03:42:58;;;;;;;19.63;16.75;;;;;;;20.98;97.72;99740.91;5055763;28;20091;-74
2021/07/13 03:45:29;;;;;;;22.80;17.90;;;;;;;21.17;97.00;99745.09;5055378;28;20037;-74
2021/07/13 03:47:59;;;;;;;22.40;17.73;;;;;;;21.35;95.80;99735.78;5055839;28;20392;-74
2021/07/13 03:50:31;;;;;;;24.75;17.70;;;;;;;21.60;94.01;99738.38;5055347;28;20045;-74
2021/07/13 03:52:59;;;;;;;20.23;16.40;;;;;;;21.78;93.16;99732.72;5055736;28;20095;-75
2021/07/13 03:55:29;;;;;;;21.90;17.20;;;;;;;21.97;91.89;99740.44;5055347;28;20045;-74
2021/07/13 03:57:57;;;;;;;20.88;16.85;;;;;;;22.23;90.21;99743.72;5054478;28;20057;-74
2021/07/13 04:00:28;;;;;;;21.60;16.02;;;;;;;22.51;88.35;99741.31;5055159;28;20091;-74
2021/07/13 04:02:57;;;;;;;19.70;15.50;;;;;;;22.68;87.70;99742.03;5055387;28;20056;-74
2021/07/13 04:05:26;;;;;;;19.60;16.27;;;;;;;22.71;87.38;99738.09;5054978;28;20064;-75
2021/07/13 04:07:54;;;;;;;19.73;15.95;;;;;;;23.08;85.46;99743.56;5055110;28;20060;-74
2021/07/13 04:10:23;;;;;;;27.67;16.63;;;;;;;23.02;85.11;99747.00;5055145;28;20131;-75
2021/07/13 04:12:51;;;;;;;20.67;15.75;;;;;;;22.99;85.56;99749.25;5055184;28;20446;-73
2021/07/13 04:15:20;;;;;;;17.90;15.57;;;;;;;23.05;85.06;99753.94;5055003;28;20459;-74
2021/07/13 04:17:50;;;;;;;20.75;16.00;;;;;;;23.42;83.48;99756.63;5055461;28;20057;-74
2021/07/13 04:20:19;;;;;;;21.98;15.68;;;;;;;23.41;83.09;99760.38;5055300;28;20103;-74
2021/07/13 04:22:49;;;;;;;20.52;15.70;;;;;;;23.73;81.48;99757.50;5055265;28;20037;-74
2021/07/13 04:25:18;;;;;;;19.33;14.88;;;;;;;23.80;81.04;99756.56;5054022;28;20064;-74
2021/07/13 04:27:46;;;;;;;19.88;15.55;;;;;;;23.89;80.41;99754.56;5054571;28;20586;-73
2021/07/13 04:30:15;;;;;;;17.30;14.70;;;;;;;24.03;80.03;99750.13;5054928;28;20128;-75
2021/07/13 04:32:43;;;;;;;18.27;14.48;;;;;;;24.67;77.21;99755.69;5054391;28;20094;-74
2021/07/13 04:35:13;;;;;;;19.75;14.20;;;;;;;24.60;77.18;99757.47;5054775;28;20103;-71
2021/07/13 04:37:42;;;;;;;19.95;14.48;;;;;;;24.57;77.28;99761.44;5054383;28;20565;-74
2021/07/13 04:40:12;;;;;;;22.25;14.88;;;;;;;24.49;77.77;99754.25;5054561;28;20460;-73
2021/07/13 04:42:41;;;;;;;19.52;14.25;;;;;;;24.72;76.45;99764.97;5054139;28;20045;-74
2021/07/13 04:45:10;;;;;;;19.80;14.50;;;;;;;25.05;75.54;99765.28;5054553;28;20041;-73
2021/07/13 04:47:39;;;;;;;21.20;15.05;;;;;;;25.24;74.22;99757.44;5054480;28;20049;-73
2021/07/13 04:50:12;;;;;;;20.55;14.23;;;;;;;25.44;73.54;99768.50;5054652;28;20057;-72
2021/07/13 04:52:41;;;;;;;19.45;14.93;;;;;;;25.80;71.33;99768.34;5053373;28;20407;-70
2021/07/13 04:55:12;;;;;;;20.20;14.13;;;;;;;25.65;72.30;99758.31;5054255;28;20071;-73
2021/07/13 04:57:41;;;;;;;17.70;14.43;;;;;;;25.64;72.35;99759.38;5054840;28;20055;-74
2021/07/13 05:00:10;;;;;;;19.05;14.38;;;;;;;26.11;70.38;99754.16;5054600;28;20376;-73
2021/07/13 05:02:41;;;;;;;19.37;15.27;;;;;;;26.65;68.77;99756.88;5054012;28;20045;-74
2021/07/13 05:05:14;;;;;;;19.45;14.43;;;;;;;26.96;65.98;99750.78;5054418;28;20093;-72
2021/07/13 05:07:45;;;;;;;18.67;14.85;;;;;;;26.51;67.51;99750.50;5053843;28;20048;-71
2021/07/13 05:10:15;;;;;;;18.85;14.80;;;;;;;26.84;66.65;99748.88;5054454;28;20049;-74
2021/07/13 05:12:46;;;;;;;18.13;14.80;;;;;;;27.19;65.08;99749.53;5053894;28;20047;-72
2021/07/13 05:15:16;;;;;;;16.67;14.32;;;;;;;27.14;65.68;99741.97;5054250;28;20051;-74
2021/07/13 05:17:45;;;;;;;20.55;14.73;;;;;;;27.16;64.48;99750.78;5054218;28;20136;-74
2021/07/13 05:20:14;;;;;;;18.38;15.35;;;;;;;27.36;63.52;99750.78;5053765;28;20079;-75
2021/07/13 05:22:45;;;;;;;19.33;15.50;;;;;;;27.31;63.87;99750.56;5053658;28;20049;-75
2021/07/13 05:25:15;;;;;;;17.45;14.35;;;;;;;27.41;64.91;99752.84;5053910;28;20047;-75
2021/07/13 05:27:44;;;;;;;19.73;14.70;;;;;;;27.37;64.23;99758.75;5053391;28;20072;-75
2021/07/13 05:30:13;;;;;;;18.75;14.57;;;;;;;27.43;63.85;99753.50;5053999;28;20124;-77
2021/07/13 05:32:41;;;;;;;17.25;14.43;;;;;;;27.56;64.39;99751.56;5051971;28;20080;-73
2021/07/13 05:35:10;;;;;;;15.05;13.45;;;;;;;27.96;62.11;99748.72;5053632;28;20041;-73
2021/07/13 05:37:39;;;;;;;16.42;13.90;;;;;;;27.64;62.78;99745.03;5053100;28;20045;-75
2021/07/13 05:40:10;;;;;;;20.88;14.25;;;;;;;27.55;63.59;99746.31;5053001;28;20055;-77
2021/07/13 05:42:39;;;;;;;17.77;13.57;;;;;;;28.71;59.65;99743.47;5052921;28;20047;-75
2021/07/13 05:45:09;;;;;;;18.35;13.85;;;;;;;28.45;59.42;99736.25;5053459;28;20065;-77
2021/07/13 05:47:37;;;;;;;17.08;13.60;;;;;;;28.52;60.21;99737.91;5053582;28;20446;-77
2021/07/13 05:50:08;;;;;;;17.83;13.02;;;;;;;28.94;58.11;99741.00;5053041;28;20044;-75
2021/07/13 05:52:37;;;;;;;16.92;12.95;;;;;;;29.17;57.75;99743.13;5050208;28;20475;-75
2021/07/13 05:55:06;;;;;;;19.02;13.48;;;;;;;29.44;56.97;99740.13;5033460;28;20095;-75
2021/07/13 05:57:36;;;;;;;16.98;13.98;;;;;;;29.15;57.27;99742.53;5032972;28;20041;-77
2021/07/13 06:00:07;;;;;;;18.00;14.35;;;;;;;29.02;57.59;99737.13;5033657;28;20088;-72
2021/07/13 06:02:36;;;;;;;17.38;13.85;;;;;;;29.39;57.21;99738.03;5033323;28;20044;-73
2021/07/13 06:05:05;;;;;;;16.42;13.45;;;;;;;29.46;56.85;99738.81;5033601;28;20041;-72
2021/07/13 06:07:33;;;;;;;17.50;12.82;;;;;;;29.71;56.63;99736.03;5033661;28;20100;-77
2021/07/13 06:10:01;;;;;;;14.27;12.77;;;;;;;29.73;56.34;99744.06;5053195;28;20069;-77
2021/07/13 06:12:30;;;;;;;18.20;12.88;;;;;;;29.83;56.10;99745.22;5053112;28;20120;-79
2021/07/13 06:14:59;;;;;;;17.20;13.60;;;;;;;30.04;55.81;99740.28;5053279;28;20041;-78
2021/07/13 06:17:28;;;;;;;17.17;13.20;;;;;;;30.21;54.84;99738.63;5052793;28;20060;-78
2021/07/13 06:19:57;;;;;;;16.20;12.40;;;;;;;30.17;54.43;99740.97;5053088;28;20046;-77
2021/07/13 06:22:25;;;;;;;15.73;12.52;;;;;;;30.16;53.77;99742.06;5052897;28;20075;-78
2021/07/13 06:24:53;;;;;;;14.35;12.00;;;;;;;30.70;52.64;99743.00;5052972;28;20060;-74
2021/07/13 06:27:22;;;;;;;16.08;11.88;;;;;;;30.92;52.07;99750.69;5053148;28;20123;-73
2021/07/13 06:29:50;;;;;;;15.35;12.75;;;;;;;30.84;52.75;99751.88;5052690;28;20124;-73
2021/07/13 06:32:20;;;;;;;16.52;12.25;;;;;;;30.54;53.13;99757.41;5052953;28;20049;-72
2021/07/13 06:34:48;;;;;;;20.55;13.00;;;;;;;30.62;53.32;99759.81;5052497;28;20045;-77
2021/07/13 06:37:16;;;;;;;17.02;11.90;;;;;;;30.97;52.83;99746.13;5052650;28;20051;-73
2021/07/13 06:39:45;;;;;;;15.18;12.90;;;;;;;30.68;52.81;99745.13;5052830;28;20200;-75
2021/07/13 06:42:13;;;;;;;16.90;11.95;;;;;;;30.71;52.80;99743.84;5052865;28;20399;-74
2021/07/13 06:44:41;;;;;;;17.38;12.15;;;;;;;30.86;51.90;99735.13;5052576;28;20045;-72
2021/07/13 06:47:10;;;;;;;14.00;11.95;;;;;;;30.97;52.29;99735.13;5052538;28;20091;-71
2021/07/13 06:49:40;;;;;;;16.77;11.95;;;;;;;30.66;52.31;99743.69;5055927;28;20072;-73
2021/07/13 06:52:08;;;;;;;14.40;12.13;;;;;;;30.80;52.82;99739.66;5057200;28;20045;-72
2021/07/13 06:54:37;;;;;;;13.30;11.40;;;;;;;31.21;51.38;99737.94;5056517;28;20523;-71
2021/07/13 06:57:05;;;;;;;13.77;11.43;;;;;;;31.19;52.63;99740.06;5056718;28;20404;-71
2021/07/13 06:59:36;;;;;;;15.13;9.93;;;;;;;31.68;48.42;99749.78;5056437;28;20400;-82
2021/07/13 07:02:05;;;;;;;11.85;10.02;;;;;;;31.13;49.80;99741.00;5056182;28;20083;-71
2021/07/13 07:04:35;;;;;;;12.93;9.60;;;;;;;31.12;50.48;99737.44;5056746;28;20094;-71
2021/07/13 07:07:05;;;;;;;15.98;10.10;;;;;;;30.64;51.36;99741.19;5056795;28;20045;-70
2021/07/13 07:09:36;;;;;;;13.55;10.63;;;;;;;30.39;51.90;99743.22;5056692;28;20064;-84
2021/07/13 07:12:05;;;;;;;13.73;10.55;;;;;;;30.32;52.23;99737.81;5056513;28;20045;-70
2021/07/13 07:14:33;;;;;;;13.82;10.20;;;;;;;30.33;51.96;99741.41;5056253;28;20468;-70
2021/07/13 07:17:01;;;;;;;13.23;10.73;;;;;;;30.19;52.56;99727.00;5056714;28;20063;-70
2021/07/13 07:19:30;;;;;;;14.15;10.48;;;;;;;30.34;51.40;99718.34;5056304;28;20052;-70
2021/07/13 07:21:58;;;;;;;15.13;11.43;;;;;;;30.01;52.40;99721.50;5055974;28;20041;-70
2021/07/13 07:24:28;;;;;;;12.07;10.60;;;;;;;30.05;53.11;99720.81;5056261;28;20053;-70
2021/07/13 07:26:56;;;;;;;16.30;10.57;;;;;;;30.07;53.06;99718.69;5055951;28;20128;-70
2021/07/13 07:29:25;;;;;;;13.82;10.98;;;;;;;30.09;52.73;99716.53;5056177;28;20045;-70
2021/07/13 07:31:53;;;;;;;14.55;10.90;;;;;;;29.76;52.32;99716.13;5056155;28;20049;-70
2021/07/13 07:34:22;;;;;;;12.45;9.85;;;;;;;29.93;52.14;99718.00;5055806;28;20053;-70
2021/07/13 07:36:51;;;;;;;15.32;10.45;;;;;;;29.86;52.43;99717.25;5055759;28;20399;-70
2021/07/13 07:39:19;;;;;;;15.07;10.27;;;;;;;29.90;54.03;99718.44;5055950;28;20381;-70
2021/07/13 07:41:52;;;;;;;12.35;10.35;;;;;;;29.78;52.19;99717.56;5055612;28;20052;-70
2021/07/13 07:44:23;;;;;;;12.50;10.05;;;;;;;30.07;51.07;99718.69;5056172;28;20037;-70
2021/07/13 07:46:52;;;;;;;14.32;9.70;;;;;;;30.10;51.63;99712.72;5055917;28;20438;-70
2021/07/13 07:49:20;;;;;;;16.33;10.77;;;;;;;30.14;51.78;99710.38;5055554;28;20045;-70
2021/07/13 07:51:48;;;;;;;11.98;9.68;;;;;;;30.41;51.85;99713.56;5055509;28;20106;-71
2021/07/13 07:54:19;;;;;;;13.27;9.43;;;;;;;30.51;50.52;99702.00;5055647;28;20045;-71
2021/07/13 07:56:49;;;;;;;12.65;8.82;;;;;;;30.49;50.54;99704.97;5054314;28;20056;-70
2021/07/13 07:59:20;;;;;;;12.65;9.75;;;;;;;30.37;50.62;99715.09;5055969;28;20435;-70
2021/07/13 08:01:49;;;;;;;15.18;9.05;;;;;;;30.41;50.48;99719.09;5055574;28;20049;-70
2021/07/13 08:04:17;;;;;;;12.18;9.05;;;;;;;30.45;50.91;99704.59;5055584;28;20120;-70
2021/07/13 08:06:46;;;;;;;12.43;9.25;;;;;;;30.52;51.32;99704.50;5055060;28;20045;-70
2021/07/13 08:09:15;;;;;;;11.68;8.60;;;;;;;30.48;51.08;99703.28;5055677;28;20048;-70
2021/07/13 08:11:43;;;;;;;11.07;8.88;;;;;;;30.40;50.39;99695.38;5055306;28;20400;-71
2021/07/13 08:14:13;;;;;;;11.30;8.65;;;;;;;30.41;50.27;99702.56;5055525;28;20119;-70
2021/07/13 08:16:45;;;;;;;10.90;8.80;;;;;;;30.49;50.21;99708.56;5054871;28;20044;-71
2021/07/13 08:19:14;;;;;;;10.40;8.43;;;;;;;30.53;50.44;99695.19;5055531;28;20044;-71
2021/07/13 08:21:42;;;;;;;12.80;9.40;;;;;;;30.60;48.89;99697.84;5055205;28;20475;-71
2021/07/13 08:24:11;;;;;;;15.15;8.52;;;;;;;30.62;49.40;99693.75;5055192;28;20136;-71
2021/07/13 08:26:40;;;;;;;13.10;8.70;;;;;;;30.53;49.54;99694.34;5053971;28;20053;-71
2021/07/13 08:29:08;;;;;;;10.32;8.07;;;;;;;30.64;48.68;99685.25;5055287;28;20044;-71
2021/07/13 08:31:38;;;;;;;10.88;8.02;;;;;;;30.82;46.79;99692.63;5055294;28;20067;-72
2021/07/13 08:34:07;;;;;;;11.77;8.48;;;;;;;30.96;47.53;99694.06;5055291;28;20048;-71
2021/07/13 08:36:39;;;;;;;16.30;7.85;;;;;;;30.81;47.39;99686.28;5055270;28;20041;-71
2021/07/13 08:39:08;;;;;;;10.75;7.55;;;;;;;30.77;46.98;99685.91;5055020;28;20534;-71
2021/07/13 08:41:39;;;;;;;11.00;7.78;;;;;;;30.56;47.93;99688.34;5054891;28;20045;-71
2021/07/13 08:44:07;;;;;;;10.98;7.68;;;;;;;30.68;48.50;99681.81;5054723;28;20041;-71
2021/07/13 08:46:40;;;;;;;12.30;8.20;;;;;;;30.74;47.21;99677.28;5054933;28;20051;-71
2021/07/13 08:49:10;;;;;;;15.35;8.15;;;;;;;30.83;47.94;99675.03;5054812;28;20041;-71
2021/07/13 08:51:42;;;;;;;11.43;8.27;;;;;;;30.84;47.91;99671.19;5054884;28;20045;-71
2021/07/13 08:54:12;;;;;;;11.75;8.40;;;;;;;30.74;47.52;99672.63;5054692;28;20107;-71
2021/07/13 08:56:40;;;;;;;12.95;8.02;;;;;;;30.90;46.92;99678.50;5054414;28;20110;-71
2021/07/13 08:59:08;;;;;;;10.27;8.38;;;;;;;30.84;47.71;99671.19;5054437;28;20041;-71
2021/07/13 09:01:37;;;;;;;9.82;7.65;;;;;;;31.18;46.68;99680.56;5054750;28;20045;-71
2021/07/13 09:04:09;;;;;;;9.18;7.78;;;;;;;31.18;46.38;99669.53;5054145;28;20086;-71
2021/07/13 09:06:53;;;;;;;12.60;8.60;;;;;;;31.14;45.69;99671.91;5054555;28;20123;-71
2021/07/13 09:09:28;;;;;;;8.93;7.95;;;;;;;31.17;45.96;99665.91;5054327;28;20144;-71
2021/07/13 09:12:11;;;;;;;11.27;7.95;;;;;;;31.13;45.37;99661.97;5053730;28;20049;-71
2021/07/13 09:14:48;;;;;;;9.25;7.65;;;;;;;30.85;47.01;99670.13;5054557;28;20403;-71
2021/07/13 09:17:37;;;;;;;11.07;7.78;;;;;;;31.05;46.18;99665.09;5054067;28;20110;-71
2021/07/13 09:20:13;;;;;;;11.57;8.45;;;;;;;31.32;45.08;99660.78;5053885;28;20045;-71
2021/07/13 09:22:52;;;;;;;12.05;8.18;;;;;;;31.39;45.66;99662.59;5054294;28;20044;-71
2021/07/13 09:25:32;;;;;;;12.52;8.32;;;;;;;31.40;45.30;99672.53;5054185;28;20049;-71
2021/07/13 09:28:11;;;;;;;10.18;7.72;;;;;;;31.40;45.24;99675.28;5053759;28;20119;-71
2021/07/13 09:30:41;;;;;;;11.85;7.65;;;;;;;31.55;45.34;99670.09;5054187;28;20075;-71
2021/07/13 09:33:15;;;;;;;11.30;7.82;;;;;;;31.69;43.98;99667.91;5053771;28;20147;-71
2021/07/13 09:36:07;;;;;;;10.88;8.30;;;;;;;31.87;42.81;99674.13;5053623;28;20044;-85
2021/07/13 09:38:38;;;;;;;9.95;7.60;;;;;;;32.00;41.99;99666.63;5053705;28;20167;-71
2021/07/13 09:41:15;;;;;;;11.60;7.15;;;;;;;31.98;40.92;99658.59;5053742;28;20044;-71
2021/07/13 09:43:59;;;;;;;9.68;7.50;;;;;;;32.12;41.32;99654.44;5053883;28;20059;-71
2021/07/13 09:46:30;;;;;;;11.77;7.88;;;;;;;32.16;41.32;99660.31;5054223;28;20151;-71
2021/07/13 09:49:18;;;;;;;9.50;7.13;;;;;;;32.16;41.22;99657.56;5053330;28;20067;-71
2021/07/13 09:51:55;;;;;;;11.48;7.72;;;;;;;32.11;39.68;99662.97;5053523;28;20052;-71
2021/07/13 09:54:39;;;;;;;11.38;7.63;;;;;;;31.99;39.50;99657.50;5053796;28;20107;-71
2021/07/13 09:57:15;;;;;;;10.35;7.50;;;;;;;32.11;39.83;99660.22;5053554;28;20048;-71
2021/07/13 09:59:46;;;;;;;12.27;7.57;;;;;;;32.23;39.30;99672.03;5053715;28;20490;-71
2021/07/13 10:02:16;;;;;;;8.43;7.50;;;;;;;32.27;38.28;99670.47;5053534;28;20041;-71
2021/07/13 10:04:46;;;;;;;9.27;7.22;;;;;;;32.34;38.37;99660.13;5053372;28;20063;-71
2021/07/13 10:07:18;;;;;;;10.48;6.75;;;;;;;32.42;38.13;99664.38;5053239;28;20045;-71
2021/07/13 10:09:48;;;;;;;9.32;7.25;;;;;;;32.44;38.05;99663.06;5052165;28;20056;-70
2021/07/13 10:12:18;;;;;;;9.77;7.72;;;;;;;32.58;37.95;99659.97;5053525;28;20048;-71
2021/07/13 10:14:50;;;;;;;9.23;7.70;;;;;;;32.56;37.45;99663.00;5053220;28;20523;-71
2021/07/13 10:17:19;;;;;;;;;;;;;;;32.69;37.68;99661.81;5053735;28;20114;-71
2021/07/13 10:19:51;;;;;;;8.23;7.00;;;;;;;32.79;36.74;99659.22;5053056;28;20020;-71
2021/07/13 10:22:24;;;;;;;9.90;7.30;;;;;;;32.77;36.75;99661.41;5052622;28;20095;-71
2021/07/13 10:24:56;;;;;;;10.73;7.68;;;;;;;32.78;37.19;99654.78;5052398;28;20071;-71
2021/07/13 10:27:28;;;;;;;9.95;7.50;;;;;;;32.82;37.23;99655.97;5053235;28;20515;-71
2021/07/13 10:29:57;;;;;;;9.37;7.30;;;;;;;32.84;36.14;99656.59;5053050;28;20047;-71
2021/07/13 10:32:34;;;;;;;9.07;7.50;;;;;;;32.81;36.23;99665.31;5052824;28;20041;-71
2021/07/13 10:35:05;;;;;;;9.65;7.47;;;;;;;32.76;36.43;99659.72;5052935;28;20045;-71
2021/07/13 10:37:37;;;;;;;11.50;7.75;;;;;;;32.77;36.82;99661.41;5053043;28;20049;-68
2021/07/13 10:40:08;;;;;;;9.30;7.60;;;;;;;32.85;36.48;99654.66;5052676;28;20381;-71
2021/07/13 10:42:51;;;;;;;10.85;7.70;;;;;;;32.84;35.60;99658.50;5052916;28;20044;-71
2021/07/13 10:45:22;;;;;;;9.77;7.40;;;;;;;32.87;36.17;99655.25;5052881;28;20048;-71
2021/07/13 10:48:09;;;;;;;11.10;7.50;;;;;;;32.77;36.85;99644.84;5051811;28;20443;-71
2021/07/13 10:50:43;;;;;;;10.73;7.60;;;;;;;32.85;36.63;99651.91;5052988;28;20282;-71
2021/07/13 10:53:35;;;;;;;10.10;8.13;;;;;;;33.06;35.64;99653.03;5052532;28;20140;-70
2021/07/13 10:56:07;;;;;;;9.65;8.00;;;;;;;33.00;35.28;99649.34;5052712;28;20487;-71
2021/07/13 10:58:47;;;;;;;11.02;7.53;;;;;;;32.98;35.56;99646.84;5052781;28;20090;-71
2021/07/13 11:01:22;;;;;;;10.15;7.18;;;;;;;33.00;35.23;99643.81;5052592;28;20051;-71
2021/07/13 11:04:08;;;;;;;11.50;7.90;;;;;;;33.00;35.82;99644.66;5052199;28;20040;-86
2021/07/13 11:06:52;;;;;;;8.57;7.68;;;;;;;33.07;34.96;99632.59;5052774;28;20037;-71
2021/07/13 11:09:44;;;;;;;10.68;7.90;;;;;;;33.16;34.87;99642.97;5051784;28;20397;-71
2021/07/13 11:12:17;;;;;;;13.05;8.38;;;;;;;33.22;35.74;99641.13;5052316;28;20052;-71
2021/07/13 11:15:00;;;;;;;9.07;8.13;;;;;;;33.28;35.44;99640.09;5052315;28;20049;-71
2021/07/13 11:17:32;;;;;;;9.25;7.88;;;;;;;33.28;35.58;99640.09;5052646;28;20158;-71
2021/07/13 11:20:08;;;;;;;9.93;8.48;;;;;;;33.24;35.99;99636.16;5052416;28;20674;-71
2021/07/13 11:22:40;;;;;;;11.70;8.18;;;;;;;33.34;36.00;99639.06;5052652;28;20381;-70
2021/07/13 11:25:22;;;;;;;12.65;8.48;;;;;;;33.36;34.65;99623.09;5052281;28;20442;-71
2021/07/13 11:28:04;;;;;;;11.82;8.43;;;;;;;33.40;34.72;99626.19;5052535;28;20049;-71
2021/07/13 11:30:33;;;;;;;8.85;7.85;;;;;;;33.48;35.34;99632.09;5052488;28;20064;-71
2021/07/13 11:33:06;;;;;;;11.95;8.95;;;;;;;33.46;34.94;99626.00;5052013;28;20127;-69
2021/07/13 11:35:38;;;;;;;11.10;8.35;;;;;;;33.53;34.36;99620.28;5055247;28;20040;-69
2021/07/13 11:38:07;;;;;;;10.80;8.52;;;;;;;33.39;34.86;99616.22;5056025;28;20075;-71